createdAt,value
2023-05-10T00:00:02.523Z,86
2023-05-10T00:01:02.361Z,86
2023-05-10T00:03:01.693Z,86
2023-05-10T00:04:01.564Z,87
2023-05-10T00:05:02.510Z,87
2023-05-10T00:06:02.461Z,87
2023-05-10T00:07:02.318Z,86
2023-05-10T00:08:02.282Z,88
2023-05-10T00:09:02.346Z,87
2023-05-10T00:10:02.186Z,87
2023-05-10T00:11:02.210Z,87
2023-05-10T00:12:02.095Z,87
2023-05-10T00:13:02.155Z,86
2023-05-10T00:14:02.074Z,88
2023-05-10T00:15:01.949Z,87
2023-05-10T00:16:01.982Z,87
2023-05-10T00:17:01.813Z,86
2023-05-10T00:18:01.832Z,87
2023-05-10T00:19:01.689Z,87
2023-05-10T00:20:01.618Z,87
2023-05-10T00:21:01.460Z,88
2023-05-10T00:22:01.499Z,88
2023-05-10T00:23:01.463Z,88
2023-05-10T00:24:02.525Z,88
2023-05-10T00:25:02.410Z,89
2023-05-10T00:26:02.373Z,89
2023-05-10T00:27:02.329Z,89
2023-05-10T00:28:02.346Z,89
2023-05-10T00:29:02.198Z,89
2023-05-10T00:30:02.228Z,89
2023-05-10T00:31:02.062Z,89
2023-05-10T00:32:02.071Z,89
2023-05-10T00:33:02.154Z,89
2023-05-10T00:34:02.014Z,90
2023-05-10T00:35:01.987Z,89
2023-05-10T00:36:01.923Z,90
2023-05-10T00:37:01.840Z,90
2023-05-10T00:38:01.938Z,91
2023-05-10T00:39:01.694Z,91
2023-05-10T00:40:01.694Z,90
2023-05-10T00:41:01.602Z,90
2023-05-10T00:42:01.585Z,91
2023-05-10T00:43:01.467Z,91
2023-05-10T00:44:02.491Z,92
2023-05-10T00:45:02.362Z,92
2023-05-10T00:46:02.500Z,92
2023-05-10T00:47:02.235Z,93
2023-05-10T00:48:02.414Z,92
2023-05-10T00:49:02.140Z,92
2023-05-10T00:50:02.163Z,92
2023-05-10T00:51:02.018Z,92
2023-05-10T00:52:02.027Z,92
2023-05-10T00:53:02.047Z,93
2023-05-10T00:54:01.984Z,93
2023-05-10T00:55:01.952Z,93
2023-05-10T00:56:02.050Z,93
2023-05-10T00:57:01.902Z,95
2023-05-10T00:58:01.955Z,97
2023-05-10T00:59:01.851Z,96
2023-05-10T01:00:02.584Z,96
2023-05-10T01:01:02.511Z,96
2023-05-10T01:03:01.954Z,96
2023-05-10T01:04:01.824Z,96
2023-05-10T01:05:01.992Z,96
2023-05-10T01:06:01.722Z,96
2023-05-10T01:07:01.815Z,97
2023-05-10T01:08:01.720Z,97
2023-05-10T01:09:01.780Z,97
2023-05-10T01:10:01.630Z,98
2023-05-10T01:11:02.039Z,97
2023-05-10T01:12:01.691Z,97
2023-05-10T01:13:01.731Z,98
2023-05-10T01:14:01.518Z,97
2023-05-10T01:15:01.580Z,98
2023-05-10T01:16:01.564Z,98
2023-05-10T01:17:02.413Z,97
2023-05-10T01:18:02.396Z,97
2023-05-10T01:19:02.227Z,97
2023-05-10T01:20:02.371Z,98
2023-05-10T01:21:02.190Z,97
2023-05-10T01:22:02.206Z,98
2023-05-10T01:23:02.053Z,98
2023-05-10T01:24:02.005Z,96
2023-05-10T01:25:02.028Z,97
2023-05-10T01:26:01.836Z,98
2023-05-10T01:27:01.937Z,98
2023-05-10T01:28:01.713Z,97
2023-05-10T01:29:01.681Z,100
2023-05-10T01:30:16.234Z,100
2023-05-10T01:31:02.016Z,100
2023-05-10T01:32:02.444Z,100
2023-05-10T01:33:02.421Z,100
2023-05-10T01:34:02.436Z,100
2023-05-10T01:35:02.311Z,100
2023-05-10T01:36:02.304Z,100
2023-05-10T01:37:02.197Z,100
2023-05-10T01:38:02.221Z,100
2023-05-10T01:39:02.028Z,100
2023-05-10T01:40:02.008Z,100
2023-05-10T01:41:02.079Z,100
2023-05-10T01:42:01.944Z,100
2023-05-10T01:43:01.958Z,100
2023-05-10T01:44:01.852Z,100
2023-05-10T01:45:01.891Z,100
2023-05-10T01:46:01.680Z,100
2023-05-10T01:47:01.684Z,100
2023-05-10T01:48:01.587Z,100
2023-05-10T01:49:01.461Z,100
2023-05-10T01:50:02.473Z,100
2023-05-10T01:51:02.388Z,100
2023-05-10T01:52:02.433Z,100
2023-05-10T01:53:02.291Z,100
2023-05-10T01:54:02.398Z,100
2023-05-10T01:55:02.208Z,100
2023-05-10T01:56:02.255Z,100
2023-05-10T01:57:02.086Z,100
2023-05-10T01:58:02.083Z,100
2023-05-10T01:59:02.150Z,100
2023-05-10T02:00:03.430Z,100
2023-05-10T02:01:02.492Z,100
2023-05-10T02:03:01.940Z,100
2023-05-10T02:04:01.818Z,100
2023-05-10T02:05:01.699Z,100
2023-05-10T02:06:01.540Z,100
2023-05-10T02:07:01.544Z,100
2023-05-10T02:08:02.492Z,100
2023-05-10T02:09:02.344Z,100
2023-05-10T02:10:02.388Z,100
2023-05-10T02:11:02.290Z,100
2023-05-10T02:12:02.319Z,100
2023-05-10T02:13:02.252Z,100
2023-05-10T02:14:02.199Z,100
2023-05-10T02:15:02.085Z,100
2023-05-10T02:16:02.031Z,100
2023-05-10T02:17:02.351Z,100
2023-05-10T02:18:02.217Z,100
2023-05-10T02:19:02.062Z,100
2023-05-10T02:20:02.030Z,100
2023-05-10T02:21:02.056Z,100
2023-05-10T02:22:01.973Z,100
2023-05-10T02:23:01.934Z,100
2023-05-10T02:24:02.018Z,100
2023-05-10T02:25:01.810Z,100
2023-05-10T02:26:01.875Z,100
2023-05-10T02:27:01.808Z,100
2023-05-10T02:28:01.845Z,100
2023-05-10T02:29:01.753Z,100
2023-05-10T02:30:01.756Z,100
2023-05-10T02:31:01.566Z,100
2023-05-10T02:32:01.673Z,100
2023-05-10T02:33:02.605Z,100
2023-05-10T02:34:02.385Z,100
2023-05-10T02:35:02.449Z,100
2023-05-10T02:36:02.280Z,100
2023-05-10T02:37:02.336Z,100
2023-05-10T02:38:02.157Z,100
2023-05-10T02:39:02.246Z,100
2023-05-10T02:40:02.230Z,100
2023-05-10T02:41:02.103Z,100
2023-05-10T02:42:02.123Z,100
2023-05-10T02:43:02.066Z,100
2023-05-10T02:44:01.988Z,100
2023-05-10T02:45:01.967Z,100
2023-05-10T02:46:02.083Z,100
2023-05-10T02:48:01.653Z,100
2023-05-10T02:49:01.518Z,100
2023-05-10T02:50:02.533Z,100
2023-05-10T02:51:02.362Z,100
2023-05-10T02:52:02.387Z,100
2023-05-10T02:53:02.265Z,100
2023-05-10T02:54:02.341Z,100
2023-05-10T02:55:02.161Z,100
2023-05-10T02:56:02.140Z,100
2023-05-10T02:57:02.037Z,100
2023-05-10T02:58:02.069Z,100
2023-05-10T02:59:02.110Z,100
2023-05-10T03:00:03.155Z,100
2023-05-10T03:01:02.044Z,100
2023-05-10T03:02:02.039Z,100
2023-05-10T03:03:02.110Z,100
2023-05-10T03:04:01.825Z,100
2023-05-10T03:05:01.952Z,100
2023-05-10T03:06:01.719Z,100
2023-05-10T03:07:01.753Z,100
2023-05-10T03:08:01.561Z,100
2023-05-10T03:09:01.590Z,100
2023-05-10T03:10:01.406Z,100
2023-05-10T03:11:02.434Z,100
2023-05-10T03:12:02.365Z,100
2023-05-10T03:13:02.476Z,100
2023-05-10T03:14:02.226Z,100
2023-05-10T03:15:02.281Z,100
2023-05-10T03:16:02.281Z,100
2023-05-10T03:17:01.986Z,100
2023-05-10T03:18:02.005Z,100
2023-05-10T03:19:01.853Z,100
2023-05-10T03:20:01.923Z,100
2023-05-10T03:21:01.812Z,100
2023-05-10T03:22:01.918Z,100
2023-05-10T03:23:01.787Z,100
2023-05-10T03:24:01.809Z,100
2023-05-10T03:25:01.610Z,100
2023-05-10T03:26:01.712Z,100
2023-05-10T03:27:01.536Z,100
2023-05-10T03:28:01.575Z,100
2023-05-10T03:29:01.462Z,100
2023-05-10T03:30:02.514Z,100
2023-05-10T03:31:02.408Z,100
2023-05-10T03:32:02.244Z,100
2023-05-10T03:33:02.451Z,100
2023-05-10T03:34:02.169Z,100
2023-05-10T03:35:02.156Z,100
2023-05-10T03:36:02.058Z,100
2023-05-10T03:37:01.991Z,100
2023-05-10T03:38:02.044Z,100
2023-05-10T03:39:01.834Z,100
2023-05-10T03:40:02.006Z,100
2023-05-10T03:41:01.911Z,100
2023-05-10T03:42:01.824Z,100
2023-05-10T03:43:01.756Z,100
2023-05-10T03:44:01.841Z,100
2023-05-10T03:45:01.709Z,100
2023-05-10T03:46:01.723Z,100
2023-05-10T03:47:02.619Z,100
2023-05-10T03:48:02.744Z,100
2023-05-10T03:49:01.605Z,100
2023-05-10T03:50:01.425Z,100
2023-05-10T03:51:02.475Z,100
2023-05-10T03:52:02.320Z,100
2023-05-10T03:53:02.390Z,100
2023-05-10T03:54:02.242Z,100
2023-05-10T03:55:02.293Z,100
2023-05-10T03:56:02.179Z,100
2023-05-10T03:57:02.209Z,100
2023-05-10T03:58:02.209Z,100
2023-05-10T03:59:02.128Z,100
2023-05-10T04:00:02.162Z,100
2023-05-10T04:01:02.060Z,100
2023-05-10T04:03:02.742Z,100
2023-05-10T04:04:01.539Z,100
2023-05-10T04:05:01.485Z,100
2023-05-10T04:06:02.617Z,100
2023-05-10T04:07:01.529Z,100
2023-05-10T04:08:01.542Z,100
2023-05-10T04:09:02.516Z,100
2023-05-10T04:10:02.422Z,100
2023-05-10T04:11:02.448Z,100
2023-05-10T04:12:02.304Z,100
2023-05-10T04:13:02.498Z,100
2023-05-10T04:14:02.309Z,100
2023-05-10T04:15:02.398Z,100
2023-05-10T04:16:02.259Z,100
2023-05-10T04:17:02.638Z,100
2023-05-10T04:18:01.638Z,100
2023-05-10T04:19:01.496Z,100
2023-05-10T04:20:01.598Z,100
2023-05-10T04:21:02.536Z,100
2023-05-10T04:22:02.388Z,100
2023-05-10T04:23:02.492Z,100
2023-05-10T04:24:02.302Z,100
2023-05-10T04:25:02.428Z,100
2023-05-10T04:26:02.389Z,100
2023-05-10T04:27:02.444Z,100
2023-05-10T04:28:02.350Z,100
2023-05-10T04:29:02.441Z,100
2023-05-10T04:30:02.370Z,100
2023-05-10T04:31:02.538Z,100
2023-05-10T04:33:02.266Z,100
2023-05-10T04:34:02.010Z,100
2023-05-10T04:35:01.991Z,100
2023-05-10T04:36:02.080Z,100
2023-05-10T04:37:01.873Z,100
2023-05-10T04:38:01.975Z,100
2023-05-10T04:39:01.902Z,100
2023-05-10T04:40:01.984Z,100
2023-05-10T04:41:01.778Z,100
2023-05-10T04:42:01.889Z,100
2023-05-10T04:43:01.774Z,100
2023-05-10T04:44:01.759Z,100
2023-05-10T04:45:01.605Z,100
2023-05-10T04:46:01.680Z,100
2023-05-10T04:47:02.469Z,100
2023-05-10T04:48:02.381Z,100
2023-05-10T04:49:02.428Z,100
2023-05-10T04:50:02.369Z,100
2023-05-10T04:51:02.374Z,100
2023-05-10T04:52:02.260Z,100
2023-05-10T04:53:02.284Z,100
2023-05-10T04:54:07.163Z,100
2023-05-10T04:55:01.824Z,100
2023-05-10T04:56:01.845Z,100
2023-05-10T04:57:01.685Z,100
2023-05-10T04:58:01.696Z,100
2023-05-10T04:59:01.504Z,100
2023-05-10T05:00:02.601Z,100
2023-05-10T05:01:01.498Z,100
2023-05-10T05:02:02.372Z,100
2023-05-10T05:03:02.530Z,100
2023-05-10T05:04:02.596Z,100
2023-05-10T05:05:02.305Z,100
2023-05-10T05:06:02.319Z,100
2023-05-10T05:07:02.268Z,100
2023-05-10T05:08:02.275Z,100
2023-05-10T05:09:02.224Z,100
2023-05-10T05:10:02.062Z,100
2023-05-10T05:11:02.155Z,100
2023-05-10T05:12:01.949Z,100
2023-05-10T05:13:02.006Z,100
2023-05-10T05:14:01.957Z,100
2023-05-10T05:15:01.836Z,100
2023-05-10T05:16:01.861Z,99
2023-05-10T05:17:01.696Z,100
2023-05-10T05:18:01.792Z,100
2023-05-10T05:19:01.599Z,98
2023-05-10T05:20:01.583Z,96
2023-05-10T05:21:01.505Z,97
2023-05-10T05:22:02.529Z,96
2023-05-10T05:23:02.423Z,93
2023-05-10T05:24:02.431Z,94
2023-05-10T05:25:02.237Z,98
2023-05-10T05:26:02.261Z,94
2023-05-10T05:27:02.169Z,95
2023-05-10T05:28:02.239Z,93
2023-05-10T05:29:02.037Z,93
2023-05-10T05:30:02.053Z,91
2023-05-10T05:31:02.048Z,91
2023-05-10T05:33:01.871Z,92
2023-05-10T05:34:01.564Z,90
2023-05-10T05:35:01.584Z,88
2023-05-10T05:36:02.453Z,88
2023-05-10T05:37:02.350Z,89
2023-05-10T05:38:02.460Z,90
2023-05-10T05:39:02.279Z,86
2023-05-10T05:40:02.320Z,86
2023-05-10T05:41:02.159Z,84
2023-05-10T05:42:02.215Z,84
2023-05-10T05:43:02.031Z,84
2023-05-10T05:44:01.968Z,82
2023-05-10T05:45:02.034Z,83
2023-05-10T05:46:01.904Z,87
2023-05-10T05:47:01.948Z,87
2023-05-10T05:48:03.184Z,85
2023-05-10T05:49:01.855Z,85
2023-05-10T05:50:01.937Z,84
2023-05-10T05:51:01.790Z,83
2023-05-10T05:52:01.764Z,85
2023-05-10T05:53:01.681Z,83
2023-05-10T05:54:01.539Z,79
2023-05-10T05:55:01.423Z,80
2023-05-10T05:56:01.511Z,81
2023-05-10T05:57:02.512Z,82
2023-05-10T05:58:02.430Z,82
2023-05-10T05:59:02.357Z,83
2023-05-10T06:00:02.364Z,81
2023-05-10T06:01:02.374Z,79
2023-05-10T06:03:01.813Z,75
2023-05-10T06:04:01.879Z,77
2023-05-10T06:05:01.824Z,78
2023-05-10T06:06:01.599Z,78
2023-05-10T06:07:01.624Z,76
2023-05-10T06:08:01.501Z,75
2023-05-10T06:09:01.540Z,76
2023-05-10T06:10:02.490Z,73
2023-05-10T06:11:02.395Z,73
2023-05-10T06:12:02.453Z,74
2023-05-10T06:13:02.401Z,74
2023-05-10T06:14:02.424Z,73
2023-05-10T06:15:02.318Z,75
2023-05-10T06:16:02.367Z,73
2023-05-10T06:17:02.276Z,74
2023-05-10T06:18:02.474Z,74
2023-05-10T06:19:02.253Z,74
2023-05-10T06:20:02.331Z,74
2023-05-10T06:21:02.238Z,71
2023-05-10T06:22:02.260Z,72
2023-05-10T06:23:02.101Z,71
2023-05-10T06:24:02.090Z,74
2023-05-10T06:25:02.141Z,72
2023-05-10T06:26:02.022Z,71
2023-05-10T06:27:01.939Z,70
2023-05-10T06:28:02.016Z,72
2023-05-10T06:29:01.907Z,70
2023-05-10T06:30:13.706Z,72
2023-05-10T06:31:01.517Z,70
2023-05-10T06:32:01.926Z,70
2023-05-10T06:33:01.945Z,69
2023-05-10T06:34:01.843Z,71
2023-05-10T06:35:01.829Z,69
2023-05-10T06:36:01.706Z,69
2023-05-10T06:37:01.798Z,70
2023-05-10T06:38:01.639Z,67
2023-05-10T06:39:01.619Z,68
2023-05-10T06:40:01.548Z,67
2023-05-10T06:41:01.527Z,67
2023-05-10T06:42:02.490Z,66
2023-05-10T06:43:02.390Z,66
2023-05-10T06:44:02.399Z,67
2023-05-10T06:45:02.354Z,66
2023-05-10T06:46:02.514Z,67
2023-05-10T06:47:02.354Z,66
2023-05-10T06:48:02.538Z,66
2023-05-10T06:49:02.306Z,64
2023-05-10T06:50:02.317Z,63
2023-05-10T06:51:02.350Z,64
2023-05-10T06:52:02.226Z,65
2023-05-10T06:53:02.201Z,64
2023-05-10T06:54:02.128Z,66
2023-05-10T06:55:02.212Z,67
2023-05-10T06:56:02.047Z,66
2023-05-10T06:57:07.258Z,64
2023-05-10T06:58:01.701Z,64
2023-05-10T06:59:01.844Z,63
2023-05-10T07:00:02.590Z,61
2023-05-10T07:01:01.531Z,62
2023-05-10T07:02:02.176Z,62
2023-05-10T07:03:02.122Z,63
2023-05-10T07:04:01.895Z,63
2023-05-10T07:05:03.783Z,63
2023-05-10T07:06:01.463Z,63
2023-05-10T07:07:01.501Z,61
2023-05-10T07:08:02.500Z,61
2023-05-10T07:09:02.375Z,64
2023-05-10T07:10:02.389Z,63
2023-05-10T07:11:02.281Z,66
2023-05-10T07:12:02.478Z,63
2023-05-10T07:13:02.281Z,62
2023-05-10T07:14:02.401Z,62
2023-05-10T07:15:02.245Z,63
2023-05-10T07:16:02.372Z,62
2023-05-10T07:17:02.168Z,61
2023-05-10T07:18:02.247Z,61
2023-05-10T07:19:02.262Z,60
2023-05-10T07:20:02.195Z,61
2023-05-10T07:21:02.201Z,61
2023-05-10T07:22:01.952Z,62
2023-05-10T07:23:01.893Z,61
2023-05-10T07:24:01.970Z,61
2023-05-10T07:25:01.757Z,61
2023-05-10T07:26:01.811Z,60
2023-05-10T07:27:01.666Z,59
2023-05-10T07:28:01.736Z,59
2023-05-10T07:29:01.498Z,61
2023-05-10T07:30:01.658Z,61
2023-05-10T07:31:01.521Z,58
2023-05-10T07:32:01.885Z,59
2023-05-10T07:33:01.956Z,58
2023-05-10T07:34:01.735Z,58
2023-05-10T07:35:01.754Z,58
2023-05-10T07:36:01.702Z,57
2023-05-10T07:37:01.682Z,58
2023-05-10T07:38:01.462Z,58
2023-05-10T07:39:01.580Z,56
2023-05-10T07:40:02.476Z,56
2023-05-10T07:41:02.366Z,58
2023-05-10T07:42:02.409Z,56
2023-05-10T07:43:02.274Z,56
2023-05-10T07:44:02.372Z,56
2023-05-10T07:45:02.183Z,55
2023-05-10T07:46:02.307Z,57
2023-05-10T07:48:02.136Z,55
2023-05-10T07:49:01.988Z,55
2023-05-10T07:50:01.906Z,55
2023-05-10T07:51:01.997Z,55
2023-05-10T07:52:01.827Z,54
2023-05-10T07:53:01.769Z,53
2023-05-10T07:54:01.774Z,53
2023-05-10T07:55:01.629Z,52
2023-05-10T07:56:01.541Z,53
2023-05-10T07:57:01.617Z,52
2023-05-10T07:58:01.480Z,53
2023-05-10T07:59:02.146Z,53
2023-05-10T08:00:01.905Z,53
2023-05-10T08:01:02.029Z,49
2023-05-10T08:03:01.989Z,52
2023-05-10T08:04:02.291Z,50
2023-05-10T08:05:02.412Z,50
2023-05-10T08:06:02.398Z,49
2023-05-10T08:07:02.305Z,50
2023-05-10T08:08:02.302Z,50
2023-05-10T08:09:02.238Z,50
2023-05-10T08:10:02.235Z,50
2023-05-10T08:11:02.091Z,50
2023-05-10T08:12:01.954Z,50
2023-05-10T08:13:01.967Z,51
2023-05-10T08:14:01.828Z,50
2023-05-10T08:15:01.788Z,49
2023-05-10T08:16:01.758Z,49
2023-05-10T08:17:01.867Z,50
2023-05-10T08:18:02.143Z,51
2023-05-10T08:19:01.931Z,52
2023-05-10T08:20:01.869Z,51
2023-05-10T08:21:01.885Z,51
2023-05-10T08:22:01.782Z,50
2023-05-10T08:23:01.707Z,50
2023-05-10T08:24:01.591Z,49
2023-05-10T08:25:01.608Z,51
2023-05-10T08:26:01.493Z,51
2023-05-10T08:27:01.490Z,50
2023-05-10T08:28:02.503Z,50
2023-05-10T08:29:02.413Z,50
2023-05-10T08:30:02.400Z,52
2023-05-10T08:31:02.335Z,51
2023-05-10T08:33:01.634Z,50
2023-05-10T08:34:02.467Z,49
2023-05-10T08:35:02.350Z,49
2023-05-10T08:36:02.335Z,51
2023-05-10T08:37:02.269Z,49
2023-05-10T08:38:02.232Z,49
2023-05-10T08:39:02.262Z,49
2023-05-10T08:40:02.098Z,49
2023-05-10T08:41:02.111Z,48
2023-05-10T08:42:01.899Z,49
2023-05-10T08:43:01.895Z,48
2023-05-10T08:44:01.757Z,49
2023-05-10T08:45:01.751Z,48
2023-05-10T08:46:01.651Z,48
2023-05-10T08:47:01.904Z,47
2023-05-10T08:48:01.992Z,47
2023-05-10T08:49:01.690Z,48
2023-05-10T08:50:01.682Z,50
2023-05-10T08:51:01.502Z,48
2023-05-10T08:52:01.535Z,47
2023-05-10T08:53:02.446Z,48
2023-05-10T08:54:02.341Z,47
2023-05-10T08:55:02.410Z,48
2023-05-10T08:56:02.282Z,49
2023-05-10T08:57:02.369Z,48
2023-05-10T08:58:02.170Z,48
2023-05-10T08:59:02.256Z,47
2023-05-10T09:00:02.235Z,49
2023-05-10T09:01:02.364Z,47
2023-05-10T09:02:02.235Z,47
2023-05-10T09:03:02.531Z,46
2023-05-10T09:04:02.614Z,46
2023-05-10T09:05:02.577Z,46
2023-05-10T09:06:02.428Z,46
2023-05-10T09:07:02.344Z,47
2023-05-10T09:08:02.401Z,46
2023-05-10T09:09:02.254Z,47
2023-05-10T09:10:02.303Z,48
2023-05-10T09:11:02.166Z,47
2023-05-10T09:12:02.228Z,47
2023-05-10T09:13:02.074Z,48
2023-05-10T09:14:02.085Z,47
2023-05-10T09:15:02.101Z,48
2023-05-10T09:16:20.246Z,49
2023-05-10T09:17:02.229Z,47
2023-05-10T09:18:02.137Z,47
2023-05-10T09:19:01.997Z,47
2023-05-10T09:20:01.870Z,47
2023-05-10T09:21:01.906Z,46
2023-05-10T09:22:01.752Z,47
2023-05-10T09:23:01.833Z,47
2023-05-10T09:24:01.618Z,47
2023-05-10T09:25:01.629Z,46
2023-05-10T09:26:01.477Z,48
2023-05-10T09:27:01.542Z,48
2023-05-10T09:28:01.461Z,47
2023-05-10T09:29:02.520Z,47
2023-05-10T09:30:02.376Z,46
2023-05-10T09:31:02.440Z,47
2023-05-10T09:32:02.252Z,47
2023-05-10T09:33:02.363Z,46
2023-05-10T09:34:02.123Z,47
2023-05-10T09:35:02.191Z,46
2023-05-10T09:36:02.245Z,47
2023-05-10T09:37:02.189Z,47
2023-05-10T09:38:02.106Z,47
2023-05-10T09:39:01.905Z,46
2023-05-10T09:40:01.893Z,46
2023-05-10T09:41:01.794Z,47
2023-05-10T09:42:01.895Z,47
2023-05-10T09:43:01.740Z,46
2023-05-10T09:44:01.779Z,46
2023-05-10T09:45:01.602Z,45
2023-05-10T09:46:01.682Z,45
2023-05-10T09:47:01.629Z,44
2023-05-10T09:48:01.857Z,45
2023-05-10T09:49:01.566Z,47
2023-05-10T09:50:01.553Z,47
2023-05-10T09:51:02.475Z,45
2023-05-10T09:52:02.341Z,45
2023-05-10T09:53:02.363Z,45
2023-05-10T09:54:02.239Z,45
2023-05-10T09:55:02.298Z,45
2023-05-10T09:56:02.246Z,44
2023-05-10T09:57:02.111Z,45
2023-05-10T09:58:02.149Z,45
2023-05-10T09:59:02.007Z,45
2023-05-10T10:00:03.794Z,45
2023-05-10T10:01:01.671Z,44
2023-05-10T10:02:02.329Z,45
2023-05-10T10:03:02.304Z,44
2023-05-10T10:04:02.241Z,44
2023-05-10T10:05:02.370Z,43
2023-05-10T10:06:02.235Z,44
2023-05-10T10:07:02.240Z,45
2023-05-10T10:08:02.234Z,47
2023-05-10T10:09:02.115Z,43
2023-05-10T10:10:02.104Z,44
2023-05-10T10:11:02.003Z,43
2023-05-10T10:12:01.985Z,42
2023-05-10T10:13:02.007Z,43
2023-05-10T10:14:01.873Z,44
2023-05-10T10:15:01.862Z,43
2023-05-10T10:16:01.805Z,44
2023-05-10T10:17:08.521Z,45
2023-05-10T10:18:01.906Z,43
2023-05-10T10:19:02.081Z,44
2023-05-10T10:20:01.849Z,44
2023-05-10T10:21:01.886Z,41
2023-05-10T10:22:01.870Z,42
2023-05-10T10:23:01.718Z,41
2023-05-10T10:24:01.640Z,41
2023-05-10T10:25:01.724Z,41
2023-05-10T10:26:01.604Z,42
2023-05-10T10:27:01.638Z,41
2023-05-10T10:28:01.589Z,41
2023-05-10T10:29:01.473Z,42
2023-05-10T10:30:01.431Z,41
2023-05-10T10:31:02.546Z,42
2023-05-10T10:33:20.454Z,43
2023-05-10T10:34:02.269Z,42
2023-05-10T10:35:02.318Z,43
2023-05-10T10:36:02.178Z,44
2023-05-10T10:37:02.248Z,44
2023-05-10T10:38:02.219Z,44
2023-05-10T10:39:02.189Z,43
2023-05-10T10:40:02.084Z,43
2023-05-10T10:41:01.972Z,42
2023-05-10T10:42:02.018Z,41
2023-05-10T10:43:01.920Z,42
2023-05-10T10:44:01.785Z,40
2023-05-10T10:45:01.733Z,41
2023-05-10T10:46:01.595Z,43
2023-05-10T10:47:02.840Z,42
2023-05-10T10:48:01.898Z,42
2023-05-10T10:49:01.713Z,42
2023-05-10T10:50:01.859Z,41
2023-05-10T10:51:01.578Z,44
2023-05-10T10:52:01.526Z,43
2023-05-10T10:53:01.532Z,43
2023-05-10T10:54:02.531Z,41
2023-05-10T10:55:02.366Z,40
2023-05-10T10:56:02.451Z,40
2023-05-10T10:57:02.292Z,40
2023-05-10T10:58:02.368Z,41
2023-05-10T10:59:02.223Z,40
2023-05-10T11:00:02.654Z,41
2023-05-10T11:01:01.585Z,39
2023-05-10T11:02:02.121Z,41
2023-05-10T11:03:02.245Z,39
2023-05-10T11:04:02.284Z,40
2023-05-10T11:05:02.013Z,40
2023-05-10T11:06:02.067Z,40
2023-05-10T11:07:01.831Z,41
2023-05-10T11:08:01.853Z,41
2023-05-10T11:09:01.698Z,41
2023-05-10T11:10:01.685Z,40
2023-05-10T11:11:01.550Z,42
2023-05-10T11:12:01.533Z,42
2023-05-10T11:13:01.460Z,40
2023-05-10T11:14:02.497Z,41
2023-05-10T11:15:02.328Z,39
2023-05-10T11:16:02.408Z,39
2023-05-10T11:18:02.173Z,40
2023-05-10T11:19:02.066Z,39
2023-05-10T11:20:01.905Z,40
2023-05-10T11:21:01.977Z,41
2023-05-10T11:22:01.804Z,41
2023-05-10T11:23:01.822Z,40
2023-05-10T11:24:01.733Z,40
2023-05-10T11:25:01.741Z,40
2023-05-10T11:26:01.600Z,41
2023-05-10T11:27:01.633Z,42
2023-05-10T11:28:01.473Z,42
2023-05-10T11:29:01.535Z,42
2023-05-10T11:30:05.180Z,42
2023-05-10T11:31:01.816Z,41
2023-05-10T11:32:01.724Z,41
2023-05-10T11:33:01.803Z,41
2023-05-10T11:34:01.508Z,40
2023-05-10T11:35:01.718Z,41
2023-05-10T11:36:01.533Z,41
2023-05-10T11:37:01.507Z,40
2023-05-10T11:38:02.475Z,41
2023-05-10T11:39:02.439Z,42
2023-05-10T11:40:02.497Z,41
2023-05-10T11:41:02.362Z,41
2023-05-10T11:42:02.417Z,41
2023-05-10T11:43:02.380Z,40
2023-05-10T11:44:02.312Z,43
2023-05-10T11:45:02.213Z,42
2023-05-10T11:46:02.272Z,43
2023-05-10T11:47:02.427Z,42
2023-05-10T11:48:02.209Z,43
2023-05-10T11:49:02.125Z,44
2023-05-10T11:50:01.999Z,45
2023-05-10T11:51:01.872Z,45
2023-05-10T11:52:01.937Z,44
2023-05-10T11:53:01.735Z,44
2023-05-10T11:54:01.814Z,44
2023-05-10T11:55:01.644Z,43
2023-05-10T11:56:01.724Z,45
2023-05-10T11:57:01.530Z,44
2023-05-10T11:58:01.628Z,41
2023-05-10T11:59:01.436Z,42
2023-05-10T12:00:02.708Z,42
2023-05-10T12:01:01.560Z,42
2023-05-10T12:02:01.417Z,43
2023-05-10T12:03:02.713Z,42
2023-05-10T12:04:02.063Z,41
2023-05-10T12:05:02.287Z,42
2023-05-10T12:06:02.092Z,43
2023-05-10T12:07:02.069Z,45
2023-05-10T12:08:02.115Z,43
2023-05-10T12:09:01.988Z,42
2023-05-10T12:10:01.885Z,41
2023-05-10T12:11:01.958Z,41
2023-05-10T12:12:01.823Z,43
2023-05-10T12:13:01.867Z,42
2023-05-10T12:14:01.774Z,43
2023-05-10T12:15:01.846Z,43
2023-05-10T12:16:01.706Z,42
2023-05-10T12:17:01.944Z,42
2023-05-10T12:18:01.956Z,42
2023-05-10T12:19:02.094Z,43
2023-05-10T12:20:02.015Z,41
2023-05-10T12:21:01.984Z,43
2023-05-10T12:22:01.912Z,43
2023-05-10T12:23:01.979Z,42
2023-05-10T12:24:01.887Z,43
2023-05-10T12:25:01.926Z,43
2023-05-10T12:26:01.797Z,43
2023-05-10T12:27:01.719Z,43
2023-05-10T12:28:01.621Z,44
2023-05-10T12:29:01.619Z,44
2023-05-10T12:30:01.561Z,42
2023-05-10T12:31:01.559Z,42
2023-05-10T12:32:01.726Z,42
2023-05-10T12:33:01.683Z,43
2023-05-10T12:34:01.485Z,42
2023-05-10T12:35:01.556Z,42
2023-05-10T12:36:02.534Z,42
2023-05-10T12:37:02.066Z,42
2023-05-10T12:38:02.038Z,42
2023-05-10T12:39:01.861Z,42
2023-05-10T12:40:01.880Z,43
2023-05-10T12:41:01.808Z,42
2023-05-10T12:42:02.476Z,43
2023-05-10T12:43:02.152Z,44
2023-05-10T12:44:01.746Z,44
2023-05-10T12:45:01.604Z,44
2023-05-10T12:46:01.837Z,46
2023-05-10T12:47:01.513Z,43
2023-05-10T12:48:01.842Z,44
2023-05-10T12:49:10.043Z,45
2023-05-10T12:50:01.766Z,45
2023-05-10T12:51:01.715Z,45
2023-05-10T12:52:01.517Z,44
2023-05-10T12:53:01.556Z,44
2023-05-10T12:54:02.544Z,43
2023-05-10T12:55:02.395Z,43
2023-05-10T12:56:02.459Z,44
2023-05-10T12:57:02.279Z,44
2023-05-10T12:58:02.360Z,43
2023-05-10T12:59:02.194Z,43
2023-05-10T13:00:02.864Z,43
2023-05-10T13:01:01.517Z,43
2023-05-10T13:02:02.310Z,45
2023-05-10T13:03:02.397Z,45
2023-05-10T13:04:02.260Z,42
2023-05-10T13:05:02.423Z,44
2023-05-10T13:06:02.233Z,43
2023-05-10T13:07:02.274Z,42
2023-05-10T13:08:02.069Z,42
2023-05-10T13:09:02.012Z,42
2023-05-10T13:10:02.010Z,43
2023-05-10T13:11:01.827Z,44
2023-05-10T13:12:01.904Z,43
2023-05-10T13:13:01.772Z,43
2023-05-10T13:14:01.787Z,42
2023-05-10T13:15:01.716Z,42
2023-05-10T13:16:01.818Z,44
2023-05-10T13:17:01.901Z,45
2023-05-10T13:18:01.771Z,43
2023-05-10T13:19:01.954Z,42
2023-05-10T13:20:01.839Z,42
2023-05-10T13:21:01.825Z,41
2023-05-10T13:22:01.911Z,42
2023-05-10T13:23:01.596Z,43
2023-05-10T13:24:02.321Z,42
2023-05-10T13:25:02.204Z,41
2023-05-10T13:26:02.293Z,42
2023-05-10T13:27:02.257Z,42
2023-05-10T13:28:02.090Z,42
2023-05-10T13:29:02.174Z,42
2023-05-10T13:30:02.040Z,42
2023-05-10T13:31:02.069Z,42
2023-05-10T13:32:02.083Z,42
2023-05-10T13:33:02.041Z,42
2023-05-10T13:34:01.783Z,42
2023-05-10T13:35:01.810Z,42
2023-05-10T13:36:01.619Z,42
2023-05-10T13:37:01.622Z,45
2023-05-10T13:38:01.467Z,47
2023-05-10T13:39:01.556Z,47
2023-05-10T13:40:02.513Z,48
2023-05-10T13:41:02.353Z,44
2023-05-10T13:42:02.358Z,44
2023-05-10T13:43:02.267Z,43
2023-05-10T13:44:02.243Z,47
2023-05-10T13:45:02.229Z,47
2023-05-10T13:46:02.368Z,48
2023-05-10T13:47:02.475Z,43
2023-05-10T13:48:02.710Z,47
2023-05-10T13:49:01.466Z,44
2023-05-10T13:50:02.479Z,43
2023-05-10T13:51:02.354Z,42
2023-05-10T13:52:02.306Z,43
2023-05-10T13:53:02.248Z,51
2023-05-10T13:54:02.232Z,46
2023-05-10T13:55:02.247Z,45
2023-05-10T13:56:02.165Z,44
2023-05-10T13:57:02.310Z,42
2023-05-10T13:58:02.050Z,42
2023-05-10T13:59:01.999Z,41
2023-05-10T14:00:02.599Z,41
2023-05-10T14:01:01.453Z,41
2023-05-10T14:02:02.207Z,42
2023-05-10T14:03:02.441Z,42
2023-05-10T14:04:02.557Z,42
2023-05-10T14:05:02.528Z,42
2023-05-10T14:06:02.600Z,43
2023-05-10T14:07:02.503Z,43
2023-05-10T14:08:02.421Z,43
2023-05-10T14:09:02.214Z,43
2023-05-10T14:10:02.432Z,43
2023-05-10T14:11:02.329Z,42
2023-05-10T14:12:02.208Z,42
2023-05-10T14:13:02.232Z,43
2023-05-10T14:14:02.267Z,42
2023-05-10T14:15:02.189Z,43
2023-05-10T14:16:02.226Z,44
2023-05-10T14:17:02.001Z,42
2023-05-10T14:18:02.081Z,42
2023-05-10T14:19:02.291Z,43
2023-05-10T14:20:02.220Z,44